Time;durP1;ratioP1;P1;durP2;ratioP2;P2;SDS_P1;SDS_P2;PMS_P1;PMS_P2;Temp;Humidity;BMP_temperature;BMP_pressure;BME280_temperature;BME280_humidity;BME280_pressure;Samples;Min_cycle;Max_cycle;Signal;HPM_P1;HPM_P2
2023/09/13 00:01:52;;;;;;;11.15;5.28;;;18.20;99.90;;;;;;4194130;28;20094;-60
2023/09/13 00:03:53;;;;;;;9.38;5.63;;;18.20;99.90;;;;;;4193615;28;20044;-61
2023/09/13 00:05:55;;;;;;;8.20;5.65;;;18.20;99.90;;;;;;4194428;28;20036;-60
2023/09/13 00:07:56;;;;;;;9.32;5.97;;;18.10;99.90;;;;;;4194332;28;20029;-63
2023/09/13 00:09:57;;;;;;;11.35;5.82;;;18.00;99.90;;;;;;4193788;28;20040;-59
2023/09/13 00:11:58;;;;;;;8.95;6.30;;;17.90;99.90;;;;;;4193579;28;20154;-60
2023/09/13 00:13:59;;;;;;;11.23;6.20;;;17.80;99.90;;;;;;4193816;28;20029;-60
2023/09/13 00:16:02;;;;;;;12.60;6.93;;;17.60;99.90;;;;;;4193855;28;20028;-62
2023/09/13 00:18:03;;;;;;;12.80;6.60;;;17.50;99.90;;;;;;4194196;28;20439;-61
2023/09/13 00:20:06;;;;;;;11.05;6.32;;;17.40;99.90;;;;;;4192267;28;20113;-61
2023/09/13 00:22:07;;;;;;;8.98;6.63;;;17.30;99.90;;;;;;4192436;28;20561;-60
2023/09/13 00:24:12;;;;;;;10.95;5.90;;;17.20;99.90;;;;;;4192657;28;20099;-59
2023/09/13 00:26:16;;;;;;;10.75;6.72;;;17.10;99.90;;;;;;4193805;28;20091;-60
2023/09/13 00:28:17;;;;;;;7.22;5.53;;;17.00;99.90;;;;;;4191966;28;20068;-57
2023/09/13 00:30:18;;;;;;;12.32;6.15;;;16.90;99.90;;;;;;4194685;28;20033;-59
2023/09/13 00:32:19;;;;;;;12.70;6.53;;;16.90;99.90;;;;;;4193431;28;20020;-60
2023/09/13 00:34:20;;;;;;;10.20;6.82;;;16.80;99.90;;;;;;4194274;28;20534;-58
2023/09/13 00:36:21;;;;;;;13.55;8.30;;;16.60;99.90;;;;;;4193267;28;20078;-59
2023/09/13 00:38:22;;;;;;;16.73;9.95;;;16.50;99.90;;;;;;4193154;28;20059;-60
2023/09/13 00:40:24;;;;;;;19.25;11.23;;;16.40;99.90;;;;;;4193607;28;20037;-61
2023/09/13 00:42:25;;;;;;;15.68;10.10;;;16.30;99.90;;;;;;4192781;28;20098;-60
2023/09/13 00:44:26;;;;;;;23.30;12.75;;;16.30;99.90;;;;;;4193475;28;20443;-62
2023/09/13 00:46:28;;;;;;;18.48;11.93;;;16.20;99.90;;;;;;4175188;28;20505;-61
2023/09/13 00:48:30;;;;;;;25.38;12.70;;;16.20;99.90;;;;;;4194609;28;20365;-64
2023/09/13 00:50:31;;;;;;;24.35;13.48;;;16.20;99.90;;;;;;4192175;28;20040;-60
2023/09/13 00:52:32;;;;;;;22.75;13.20;;;16.20;99.90;;;;;;4194433;28;20569;-60
2023/09/13 00:54:34;;;;;;;20.48;13.77;;;16.20;99.90;;;;;;4193203;28;20024;-59
2023/09/13 00:56:36;;;;;;;22.65;13.88;;;16.20;99.90;;;;;;4194255;28;20618;-61
2023/09/13 00:58:38;;;;;;;21.83;12.77;;;16.10;99.90;;;;;;4193117;28;20370;-60
2023/09/13 01:00:40;;;;;;;24.77;13.98;;;16.10;99.90;;;;;;4193455;28;20097;-61
2023/09/13 01:02:42;;;;;;;20.38;12.85;;;16.10;99.90;;;;;;4192670;28;20125;-61
2023/09/13 01:04:43;;;;;;;24.30;13.77;;;16.10;99.90;;;;;;4193874;28;20064;-62
2023/09/13 01:06:44;;;;;;;27.45;14.77;;;16.00;99.90;;;;;;4192591;28;20400;-61
2023/09/13 01:08:46;;;;;;;20.20;13.85;;;16.00;99.90;;;;;;4193168;28;20078;-62
2023/09/13 01:10:47;;;;;;;17.83;13.07;;;16.00;99.90;;;;;;4192446;28;20040;-63
2023/09/13 01:12:48;;;;;;;28.30;14.75;;;16.00;99.90;;;;;;4193115;28;20028;-61
2023/09/13 01:14:50;;;;;;;24.70;14.35;;;15.90;99.90;;;;;;4193232;28;20044;-62
2023/09/13 01:16:53;;;;;;;20.65;14.48;;;15.80;99.90;;;;;;4192863;28;20036;-62
2023/09/13 01:19:22;;;;;;;19.80;14.07;;;15.80;99.90;;;;;;4192908;28;20052;-60
2023/09/13 01:22:22;;;;;;;20.83;14.35;;;15.80;99.90;;;;;;4192326;28;20032;-60
2023/09/13 01:25:00;;;;;;;25.17;14.77;;;15.70;99.90;;;;;;4110844;28;20060;-62
2023/09/13 01:27:20;;;;;;;30.80;14.50;;;15.70;99.90;;;;;;4177064;28;20052;-61
2023/09/13 01:29:23;;;;;;;20.55;14.50;;;15.70;99.90;;;;;;4191829;28;20518;-61
2023/09/13 01:31:27;;;;;;;23.20;14.07;;;15.80;99.90;;;;;;4193198;28;20032;-61
2023/09/13 01:33:28;;;;;;;21.45;13.95;;;15.80;99.90;;;;;;4191944;28;20086;-61
2023/09/13 01:35:29;;;;;;;27.08;14.73;;;15.80;99.90;;;;;;4194040;28;20389;-64
2023/09/13 01:37:31;;;;;;;20.30;13.93;;;15.80;99.90;;;;;;4191944;28;20090;-61
2023/09/13 01:39:32;;;;;;;22.30;13.60;;;15.80;99.90;;;;;;4193951;28;20102;-61
2023/09/13 01:41:39;;;;;;;17.40;12.57;;;15.80;99.90;;;;;;4192570;28;20086;-59
2023/09/13 01:43:45;;;;;;;18.25;12.50;;;15.70;99.90;;;;;;4193422;28;20461;-62
2023/09/13 01:45:47;;;;;;;17.08;12.25;;;15.70;99.90;;;;;;4192713;28;20036;-60
2023/09/13 01:47:49;;;;;;;18.88;12.65;;;15.60;99.90;;;;;;4192184;28;20048;-61
2023/09/13 01:49:51;;;;;;;22.25;11.93;;;15.70;99.90;;;;;;4192985;28;20029;-62
2023/09/13 01:51:53;;;;;;;23.30;13.40;;;15.70;99.90;;;;;;4191814;28;20044;-62
2023/09/13 01:53:57;;;;;;;24.50;12.48;;;15.70;99.90;;;;;;4193478;28;20485;-61
2023/09/13 01:55:58;;;;;;;19.50;13.18;;;15.70;99.90;;;;;;4191607;28;20036;-63
2023/09/13 01:57:59;;;;;;;19.80;12.57;;;15.70;99.90;;;;;;4192791;28;20082;-61
2023/09/13 02:00:00;;;;;;;18.08;12.25;;;15.70;99.90;;;;;;4192350;28;20074;-59
2023/09/13 02:02:01;;;;;;;23.48;12.27;;;15.80;99.90;;;;;;4193473;28;20411;-61
2023/09/13 02:04:05;;;;;;;21.10;12.63;;;15.80;99.90;;;;;;4191695;28;20062;-62
2023/09/13 02:06:06;;;;;;;24.00;13.52;;;15.90;99.90;;;;;;4193498;28;20032;-62
2023/09/13 02:08:08;;;;;;;21.85;12.70;;;15.90;99.90;;;;;;4192318;28;20044;-60
2023/09/13 02:10:09;;;;;;;23.92;14.00;;;15.80;99.90;;;;;;4193497;28;20439;-61
2023/09/13 02:12:12;;;;;;;25.15;12.93;;;15.90;99.90;;;;;;4191784;28;20435;-61
2023/09/13 02:14:13;;;;;;;22.20;13.68;;;15.80;99.90;;;;;;4175595;28;20087;-63
2023/09/13 02:16:21;;;;;;;20.10;12.75;;;15.70;99.90;;;;;;4191712;28;20090;-62
2023/09/13 02:18:23;;;;;;;25.55;13.45;;;15.60;99.90;;;;;;4192348;28;20040;-61
2023/09/13 02:20:24;;;;;;;23.77;12.50;;;15.50;99.90;;;;;;4191736;28;20045;-60
2023/09/13 02:22:25;;;;;;;23.15;12.18;;;15.50;99.90;;;;;;4191829;28;20049;-61
2023/09/13 02:24:26;;;;;;;22.85;12.25;;;15.50;99.90;;;;;;4192215;28;20048;-60
2023/09/13 02:26:27;;;;;;;24.55;13.30;;;15.50;99.90;;;;;;4192356;28;20040;-58
2023/09/13 02:28:28;;;;;;;20.73;11.68;;;15.40;99.90;;;;;;4192500;28;20055;-62
2023/09/13 02:30:31;;;;;;;24.17;12.57;;;15.50;99.90;;;;;;4192213;28;20041;-62
2023/09/13 02:32:32;;;;;;;20.90;13.18;;;15.50;99.90;;;;;;4192624;28;20036;-61
2023/09/13 02:34:33;;;;;;;14.52;10.85;;;15.50;99.90;;;;;;4191537;28;20162;-61
2023/09/13 02:36:34;;;;;;;17.77;10.05;;;15.50;99.90;;;;;;4196018;28;20028;-63
2023/09/13 02:38:35;;;;;;;18.33;10.32;;;15.60;99.90;;;;;;4195450;28;20090;-61
2023/09/13 02:40:37;;;;;;;15.75;10.07;;;15.60;99.90;;;;;;4196233;28;20476;-60
2023/09/13 02:42:38;;;;;;;21.20;11.52;;;15.50;99.90;;;;;;4193921;28;20086;-63
2023/09/13 02:44:40;;;;;;;16.00;10.52;;;15.60;99.90;;;;;;4195793;28;20094;-61
2023/09/13 02:46:41;;;;;;;23.27;10.23;;;15.60;99.90;;;;;;4193815;28;20481;-61
2023/09/13 02:48:42;;;;;;;20.38;10.82;;;15.50;99.90;;;;;;4194757;28;20052;-63
2023/09/13 02:50:43;;;;;;;18.58;11.23;;;15.60;99.90;;;;;;4195005;28;20028;-63
2023/09/13 02:52:44;;;;;;;16.77;10.48;;;15.50;99.90;;;;;;4195768;28;20032;-60
2023/09/13 02:54:46;;;;;;;23.50;10.85;;;15.40;99.90;;;;;;4194799;28;20105;-62
2023/09/13 02:56:54;;;;;;;16.65;9.57;;;15.40;99.90;;;;;;4195336;28;20101;-61
2023/09/13 02:58:56;;;;;;;16.63;10.05;;;15.30;99.90;;;;;;4194430;28;20036;-61
2023/09/13 03:00:58;;;;;;;19.77;9.98;;;15.30;99.90;;;;;;4193293;28;20082;-60
2023/09/13 03:02:59;;;;;;;13.63;9.90;;;15.20;99.90;;;;;;4194438;28;20041;-60
2023/09/13 03:05:00;;;;;;;18.23;10.27;;;15.10;99.90;;;;;;4193879;28;20102;-60
2023/09/13 03:07:01;;;;;;;15.18;9.70;;;15.10;99.90;;;;;;4196079;28;20040;-61
2023/09/13 03:09:03;;;;;;;13.60;10.35;;;15.00;99.90;;;;;;4194582;28;20036;-62
2023/09/13 03:11:14;;;;;;;16.85;9.70;;;14.90;99.90;;;;;;4194611;28;20040;-61
2023/09/13 03:13:15;;;;;;;17.42;8.50;;;14.90;99.90;;;;;;4194619;28;20070;-59
2023/09/13 03:15:16;;;;;;;14.15;9.23;;;14.80;99.90;;;;;;4194717;28;20044;-62
2023/09/13 03:17:17;;;;;;;15.98;10.00;;;14.70;99.90;;;;;;4193743;28;20036;-59
2023/09/13 03:19:19;;;;;;;14.43;9.02;;;14.60;99.90;;;;;;4195286;28;20439;-57
2023/09/13 03:21:20;;;;;;;15.25;8.85;;;14.60;99.90;;;;;;4194296;28;20032;-57
2023/09/13 03:23:21;;;;;;;11.88;7.88;;;14.50;99.90;;;;;;4194370;28;20496;-61
2023/09/13 03:25:22;;;;;;;13.43;8.98;;;14.50;99.90;;;;;;4193800;28;20129;-60
2023/09/13 03:27:23;;;;;;;12.02;9.05;;;14.60;99.90;;;;;;4194993;28;20025;-60
2023/09/13 03:29:24;;;;;;;10.82;7.32;;;14.60;99.90;;;;;;4194531;28;20024;-59
2023/09/13 03:31:26;;;;;;;13.10;8.55;;;14.60;99.90;;;;;;4194607;28;20086;-61
2023/09/13 03:33:27;;;;;;;17.65;8.70;;;14.70;99.90;;;;;;4193954;28;20081;-61
2023/09/13 03:35:29;;;;;;;14.60;9.02;;;14.70;99.90;;;;;;4194577;28;20028;-60
2023/09/13 03:37:32;;;;;;;14.15;9.18;;;14.80;99.90;;;;;;4194799;28;20105;-61
2023/09/13 03:39:34;;;;;;;17.85;9.00;;;14.80;99.90;;;;;;4194170;28;20354;-60
2023/09/13 03:41:35;;;;;;;12.60;8.23;;;14.80;99.90;;;;;;4195482;28;20062;-61
2023/09/13 03:43:36;;;;;;;14.02;9.00;;;14.90;99.90;;;;;;4194017;28;20028;-61
2023/09/13 03:45:38;;;;;;;11.70;7.65;;;14.90;99.90;;;;;;4194452;28;20048;-59
2023/09/13 03:47:43;;;;;;;15.10;8.35;;;15.00;99.90;;;;;;4192636;28;20468;-57
2023/09/13 03:49:44;;;;;;;17.27;8.70;;;15.00;99.90;;;;;;4194321;28;20044;-61
2023/09/13 03:51:45;;;;;;;14.13;8.20;;;15.00;99.90;;;;;;4193075;28;20624;-62
2023/09/13 03:53:47;;;;;;;16.40;9.00;;;15.10;99.90;;;;;;4195037;28;20028;-59
2023/09/13 03:55:48;;;;;;;18.25;10.30;;;15.10;99.90;;;;;;4194130;28;20543;-60
2023/09/13 03:57:49;;;;;;;20.15;10.98;;;15.00;99.90;;;;;;4194207;28;20117;-60
2023/09/13 03:59:50;;;;;;;19.25;11.38;;;15.10;99.90;;;;;;4193402;28;20443;-60
2023/09/13 04:01:52;;;;;;;18.75;11.07;;;15.00;99.90;;;;;;4192915;28;20045;-61
2023/09/13 04:03:53;;;;;;;15.00;10.07;;;15.00;99.90;;;;;;4193286;28;20067;-60
2023/09/13 04:05:54;;;;;;;16.92;10.55;;;14.90;99.90;;;;;;4194108;28;20028;-59
2023/09/13 04:07:56;;;;;;;21.90;10.23;;;14.90;99.90;;;;;;4193604;28;20024;-63
2023/09/13 04:09:59;;;;;;;31.38;11.43;;;14.90;99.90;;;;;;4193021;28;20135;-62
2023/09/13 04:12:00;;;;;;;20.80;11.40;;;14.90;99.90;;;;;;4193645;28;20136;-62
2023/09/13 04:14:02;;;;;;;21.10;12.20;;;14.90;99.90;;;;;;4192697;28;20040;-63
2023/09/13 04:16:06;;;;;;;25.00;12.95;;;14.90;99.90;;;;;;4192840;28;20037;-61
2023/09/13 04:18:08;;;;;;;34.78;12.40;;;15.00;99.90;;;;;;4192183;28;20044;-62
2023/09/13 04:20:10;;;;;;;20.30;11.68;;;15.00;99.90;;;;;;4193827;28;20090;-57
2023/09/13 04:22:16;;;;;;;19.10;12.18;;;15.10;99.90;;;;;;4193492;28;20040;-64
2023/09/13 04:24:17;;;;;;;26.48;12.82;;;15.30;99.90;;;;;;4193710;28;20142;-61
2023/09/13 04:26:21;;;;;;;23.00;11.50;;;15.50;99.90;;;;;;4192425;28;20056;-60
2023/09/13 04:28:22;;;;;;;27.50;12.15;;;15.70;99.90;;;;;;4193387;28;20117;-64
2023/09/13 04:30:24;;;;;;;17.10;10.63;;;15.90;99.90;;;;;;4192161;28;20052;-64
2023/09/13 04:32:25;;;;;;;19.25;13.38;;;16.10;99.90;;;;;;4193860;28;20438;-64
2023/09/13 04:34:27;;;;;;;22.65;11.98;;;16.40;99.90;;;;;;4192871;28;20153;-66
2023/09/13 04:36:28;;;;;;;16.50;11.77;;;16.60;99.90;;;;;;4192539;28;20045;-62
2023/09/13 04:38:29;;;;;;;15.50;10.80;;;16.90;99.90;;;;;;4193179;28;20106;-64
2023/09/13 04:40:30;;;;;;;16.38;9.52;;;17.20;99.90;;;;;;4179972;28;20127;-62
2023/09/13 04:42:42;;;;;;;17.45;10.18;;;17.40;99.90;;;;;;4187084;28;20028;-64
2023/09/13 04:44:43;;;;;;;18.50;10.65;;;17.70;99.90;;;;;;4175989;28;20053;-63
2023/09/13 04:46:45;;;;;;;17.77;10.90;;;17.90;99.90;;;;;;4182576;28;20438;-61
2023/09/13 04:48:46;;;;;;;22.77;11.70;;;18.20;99.90;;;;;;4173240;28;20066;-63
2023/09/13 04:50:47;;;;;;;22.25;12.45;;;18.40;99.90;;;;;;4193277;28;20095;-61
2023/09/13 04:52:48;;;;;;;22.17;11.15;;;18.60;99.90;;;;;;4175175;28;20045;-62
2023/09/13 04:54:49;;;;;;;25.50;11.65;;;18.70;99.90;;;;;;4193022;28;20040;-62
2023/09/13 04:56:51;;;;;;;20.73;10.55;;;18.70;99.90;;;;;;4190952;28;20070;-61
2023/09/13 04:58:52;;;;;;;21.13;10.20;;;18.70;99.90;;;;;;4192445;28;20049;-60
2023/09/13 05:00:53;;;;;;;19.98;9.45;;;18.80;99.90;;;;;;4190911;28;20040;-62
2023/09/13 05:02:54;;;;;;;25.05;10.05;;;19.10;99.90;;;;;;4193026;28;20496;-60
2023/09/13 05:04:55;;;;;;;22.98;10.70;;;19.40;99.90;;;;;;4193155;28;20040;-60
2023/09/13 05:06:57;;;;;;;19.42;10.77;;;19.60;99.90;;;;;;4192539;28;20086;-59
2023/09/13 05:08:58;;;;;;;20.55;10.82;;;19.60;99.90;;;;;;4192755;28;20020;-63
2023/09/13 05:11:01;;;;;;;18.67;10.02;;;19.80;99.90;;;;;;4192624;28;20110;-61
2023/09/13 05:13:03;;;;;;;13.07;8.52;;;19.70;99.90;;;;;;4192458;28;20082;-63
2023/09/13 05:15:04;;;;;;;20.70;10.00;;;19.70;99.90;;;;;;4193078;28;20073;-64
2023/09/13 05:17:05;;;;;;;18.35;9.75;;;19.70;99.90;;;;;;4192556;28;20033;-59
2023/09/13 05:19:07;;;;;;;17.55;9.40;;;19.80;99.90;;;;;;4192003;28;20609;-61
2023/09/13 05:21:08;;;;;;;16.75;9.75;;;20.00;99.90;;;;;;4193379;28;20385;-60
2023/09/13 05:23:09;;;;;;;11.57;9.38;;;20.00;99.90;;;;;;4191866;28;20146;-61
2023/09/13 05:25:10;;;;;;;16.05;10.40;;;20.10;99.90;;;;;;4192971;28;20547;-57
2023/09/13 05:27:11;;;;;;;13.57;9.95;;;20.20;99.90;;;;;;4192648;28;20554;-59
2023/09/13 05:29:12;;;;;;;19.60;9.70;;;20.20;99.90;;;;;;4193209;28;20082;-61
2023/09/13 05:31:14;;;;;;;18.55;9.40;;;20.10;99.90;;;;;;4192653;28;20109;-59
2023/09/13 05:33:15;;;;;;;21.25;10.25;;;20.10;99.90;;;;;;4193785;28;20033;-60
2023/09/13 05:35:16;;;;;;;14.43;9.00;;;20.10;99.90;;;;;;4192918;28;20082;-60
2023/09/13 05:37:17;;;;;;;17.77;10.38;;;20.10;99.90;;;;;;4192530;28;20041;-60
2023/09/13 05:39:19;;;;;;;19.67;9.75;;;20.10;99.90;;;;;;4192771;28;20094;-58
2023/09/13 05:41:20;;;;;;;26.95;10.35;;;20.30;99.90;;;;;;4192915;28;20349;-61
2023/09/13 05:43:21;;;;;;;23.98;10.25;;;20.30;99.90;;;;;;4193147;28;20032;-60
2023/09/13 05:45:23;;;;;;;21.60;10.85;;;20.20;99.90;;;;;;4192525;28;20098;-61
2023/09/13 05:47:24;;;;;;;20.50;11.30;;;20.10;99.90;;;;;;4193808;28;20029;-61
2023/09/13 05:49:26;;;;;;;18.98;11.10;;;20.30;99.90;;;;;;4192537;28;20125;-62
2023/09/13 05:51:27;;;;;;;21.40;9.48;;;20.40;99.90;;;;;;4192911;28;20037;-62
2023/09/13 05:53:30;;;;;;;30.02;12.65;;;20.60;99.90;;;;;;4192543;28;20020;-63
2023/09/13 05:55:31;;;;;;;31.77;14.05;;;20.80;99.90;;;;;;4192298;28;20032;-60
2023/09/13 05:57:32;;;;;;;34.03;14.75;;;21.00;99.90;;;;;;4191818;28;20066;-62
2023/09/13 05:59:35;;;;;;;35.05;17.75;;;21.20;99.90;;;;;;4192790;28;20094;-61
2023/09/13 06:01:37;;;;;;;31.40;17.63;;;21.40;99.90;;;;;;4192390;28;20016;-61
2023/09/13 06:03:38;;;;;;;29.08;17.25;;;21.60;99.90;;;;;;4192422;28;20424;-62
2023/09/13 06:05:39;;;;;;;36.60;21.17;;;22.10;99.90;;;;;;4191777;28;20037;-62
2023/09/13 06:07:40;;;;;;;39.47;21.15;;;22.40;99.90;;;;;;4192152;28;20040;-61
2023/09/13 06:09:41;;;;;;;42.17;19.55;;;22.80;99.90;;;;;;4174220;28;20099;-62
2023/09/13 06:11:43;;;;;;;31.13;16.33;;;23.20;99.90;;;;;;4195790;28;20028;-64
2023/09/13 06:13:44;;;;;;;29.58;13.60;;;23.50;99.90;;;;;;4195540;28;20125;-62
2023/09/13 06:15:45;;;;;;;24.58;13.23;;;23.50;99.90;;;;;;4195666;28;20062;-61
2023/09/13 06:17:46;;;;;;;28.70;14.90;;;23.60;99.90;;;;;;4196119;28;20074;-63
2023/09/13 06:19:48;;;;;;;21.63;11.90;;;24.00;99.90;;;;;;4194662;28;20102;-63
2023/09/13 06:21:49;;;;;;;34.25;13.65;;;23.90;99.90;;;;;;4195653;28;20118;-63
2023/09/13 06:23:50;;;;;;;29.65;13.13;;;24.00;99.90;;;;;;4194327;28;20052;-62
2023/09/13 06:25:51;;;;;;;23.30;11.88;;;23.80;99.90;;;;;;4196377;28;20109;-64
2023/09/13 06:27:52;;;;;;;33.85;11.98;;;23.80;99.90;;;;;;4194765;28;20024;-62
2023/09/13 06:29:53;;;;;;;25.13;12.15;;;23.80;99.90;;;;;;4178292;28;20144;-64
2023/09/13 06:31:55;;;;;;;21.35;11.95;;;23.70;99.90;;;;;;4194948;28;20032;-59
2023/09/13 06:33:56;;;;;;;21.70;11.55;;;23.30;99.90;;;;;;4194942;28;20098;-61
2023/09/13 06:35:57;;;;;;;19.17;11.10;;;23.20;99.90;;;;;;4194812;28;20834;-61
2023/09/13 06:37:58;;;;;;;25.30;11.43;;;23.10;99.90;;;;;;4195015;28;20093;-61
2023/09/13 06:40:00;;;;;;;18.20;10.75;;;23.30;99.90;;;;;;4194491;28;20102;-62
2023/09/13 06:42:04;;;;;;;17.20;10.30;;;23.20;99.90;;;;;;4195534;28;20033;-62
2023/09/13 06:44:09;;;;;;;17.98;10.55;;;23.20;99.90;;;;;;4194515;28;20040;-62
2023/09/13 06:46:10;;;;;;;19.30;11.05;;;23.10;99.90;;;;;;4194193;28;20125;-62
2023/09/13 06:48:13;;;;;;;21.80;10.40;;;23.10;99.90;;;;;;4195094;28;20033;-61
2023/09/13 06:50:14;;;;;;;22.83;10.32;;;23.30;99.90;;;;;;4194922;28;20082;-62
2023/09/13 06:52:15;;;;;;;22.27;9.75;;;23.50;99.90;;;;;;4194563;28;20098;-61
2023/09/13 06:54:18;;;;;;;22.52;10.02;;;23.70;99.90;;;;;;4194775;28;20032;-61
2023/09/13 06:56:19;;;;;;;17.27;9.25;;;23.60;99.90;;;;;;4196023;28;20086;-61
2023/09/13 06:58:21;;;;;;;18.73;10.15;;;23.90;99.90;;;;;;4194765;28;20020;-61
2023/09/13 07:00:22;;;;;;;19.48;8.23;;;24.10;99.90;;;;;;4195234;28;20036;-62
2023/09/13 07:02:24;;;;;;;15.35;9.18;;;24.00;99.90;;;;;;4194840;28;20094;-61
2023/09/13 07:04:25;;;;;;;18.48;8.48;;;23.90;99.90;;;;;;4194392;28;20048;-60
2023/09/13 07:06:26;;;;;;;18.98;8.20;;;23.90;99.90;;;;;;4194260;28;20440;-61
2023/09/13 07:08:27;;;;;;;12.60;7.65;;;23.70;99.90;;;;;;4195701;28;20531;-64
2023/09/13 07:10:29;;;;;;;15.07;7.05;;;24.20;99.90;;;;;;4194105;28;20546;-62
2023/09/13 07:12:30;;;;;;;18.63;7.45;;;24.50;99.90;;;;;;4195534;28;20086;-62
2023/09/13 07:14:31;;;;;;;10.90;7.80;;;24.40;99.90;;;;;;4194943;28;20117;-59
2023/09/13 07:16:33;;;;;;;18.70;7.95;;;24.30;99.90;;;;;;4194579;28;20074;-61
2023/09/13 07:18:34;;;;;;;14.95;7.93;;;24.30;99.90;;;;;;4194027;28;20036;-61
2023/09/13 07:20:35;;;;;;;22.00;8.55;;;23.80;99.90;;;;;;4194457;28;20146;-60
2023/09/13 07:22:37;;;;;;;13.38;8.25;;;23.70;99.90;;;;;;4193294;28;20045;-60
2023/09/13 07:24:38;;;;;;;16.05;7.47;;;23.50;99.90;;;;;;4194217;28;20032;-61
2023/09/13 07:26:39;;;;;;;15.20;7.15;;;23.00;99.90;;;;;;4195182;28;20036;-62
2023/09/13 07:28:40;;;;;;;10.75;5.53;;;23.00;99.90;;;;;;4194106;28;20040;-62
2023/09/13 07:30:41;;;;;;;9.23;5.35;;;23.00;99.90;;;;;;4194336;28;20401;-61
2023/09/13 07:32:42;;;;;;;16.17;6.45;;;23.10;99.90;;;;;;4193988;28;20024;-58
2023/09/13 07:34:43;;;;;;;15.63;8.13;;;23.00;99.90;;;;;;4194671;28;20041;-62
2023/09/13 07:36:45;;;;;;;16.75;9.15;;;23.30;99.90;;;;;;4193716;28;20135;-60
2023/09/13 07:38:46;;;;;;;16.45;8.85;;;23.30;99.90;;;;;;4194665;28;20106;-62
2023/09/13 07:40:47;;;;;;;22.80;9.63;;;23.30;99.90;;;;;;4193986;28;20391;-61
2023/09/13 07:42:48;;;;;;;20.92;10.75;;;23.30;99.90;;;;;;4194297;28;20451;-60
2023/09/13 07:44:49;;;;;;;18.92;9.75;;;23.10;99.90;;;;;;4193506;28;20071;-61
2023/09/13 07:46:50;;;;;;;15.73;8.73;;;23.10;99.90;;;;;;4194742;28;20089;-63
2023/09/13 07:48:52;;;;;;;15.55;8.95;;;23.10;99.90;;;;;;4194411;28;20318;-60
2023/09/13 07:50:54;;;;;;;17.38;8.85;;;23.00;99.90;;;;;;4194165;28;20032;-59
2023/09/13 07:52:55;;;;;;;15.80;9.23;;;23.00;99.90;;;;;;4195022;28;20032;-62
2023/09/13 07:54:56;;;;;;;12.63;7.88;;;23.00;99.90;;;;;;4194098;28;20029;-62
2023/09/13 07:56:57;;;;;;;13.13;8.15;;;23.40;99.90;;;;;;4195179;28;20028;-63
2023/09/13 07:58:58;;;;;;;17.92;7.38;;;23.60;99.90;;;;;;4193693;28;20102;-63
2023/09/13 08:00:59;;;;;;;16.38;7.85;;;23.80;99.90;;;;;;4192957;28;20102;-59
2023/09/13 08:03:02;;;;;;;12.05;7.15;;;23.90;99.90;;;;;;4193711;28;20444;-62
2023/09/13 08:05:05;;;;;;;16.73;7.30;;;23.80;99.90;;;;;;4194338;28;20052;-59
2023/09/13 08:07:06;;;;;;;16.92;7.35;;;23.80;99.90;;;;;;4194181;28;20076;-62
2023/09/13 08:09:08;;;;;;;15.60;7.80;;;23.90;99.90;;;;;;4194184;28;20036;-61
2023/09/13 08:11:09;;;;;;;15.27;7.25;;;24.10;99.90;;;;;;4193833;28;20431;-60
2023/09/13 08:13:10;;;;;;;13.50;6.65;;;24.10;99.90;;;;;;4193987;28;20036;-63
2023/09/13 08:15:11;;;;;;;11.77;6.45;;;24.20;99.90;;;;;;4193267;28;20037;-62
2023/09/13 08:17:13;;;;;;;12.27;6.28;;;24.20;99.90;;;;;;4194267;28;20423;-63
2023/09/13 08:19:14;;;;;;;13.65;7.10;;;24.10;99.90;;;;;;4193948;28;20437;-60
2023/09/13 08:21:15;;;;;;;20.90;7.32;;;24.10;99.90;;;;;;4193009;28;20033;-62
2023/09/13 08:23:16;;;;;;;14.55;7.03;;;24.20;99.90;;;;;;4194526;28;20044;-62
2023/09/13 08:25:17;;;;;;;13.18;5.90;;;24.50;99.90;;;;;;4192594;28;20577;-62
2023/09/13 08:27:18;;;;;;;13.45;6.13;;;24.60;99.90;;;;;;4194795;28;20028;-63
2023/09/13 08:29:19;;;;;;;12.93;6.88;;;24.80;99.90;;;;;;4192416;28;20037;-62
2023/09/13 08:31:23;;;;;;;19.45;6.70;;;25.00;99.90;;;;;;4193975;28;20033;-61
2023/09/13 08:33:24;;;;;;;21.52;7.72;;;25.00;99.90;;;;;;4193132;28;20447;-61
2023/09/13 08:35:26;;;;;;;11.77;5.88;;;25.20;99.90;;;;;;4194493;28;20020;-62
2023/09/13 08:37:27;;;;;;;15.80;6.88;;;25.30;99.90;;;;;;4192577;28;20097;-62
2023/09/13 08:39:28;;;;;;;12.48;6.72;;;25.40;99.90;;;;;;4193790;28;20094;-62
2023/09/13 08:41:29;;;;;;;15.23;7.68;;;25.50;99.90;;;;;;4191975;28;20346;-62
2023/09/13 08:43:32;;;;;;;15.85;6.47;;;25.50;99.90;;;;;;4194064;28;20058;-66
2023/09/13 08:45:35;;;;;;;20.70;6.88;;;25.20;99.90;;;;;;4193416;28;20106;-62
2023/09/13 08:47:41;;;;;;;15.23;7.70;;;25.20;99.90;;;;;;4195402;28;20029;-65
2023/09/13 08:49:44;;;;;;;12.35;7.00;;;25.30;99.90;;;;;;4192874;28;20029;-64
2023/09/13 08:51:46;;;;;;;14.20;7.50;;;25.50;99.90;;;;;;4193438;28;20450;-65
2023/09/13 08:53:50;;;;;;;14.00;7.13;;;25.50;99.90;;;;;;4193131;28;20077;-61
2023/09/13 08:55:54;;;;;;;13.98;6.82;;;25.70;99.90;;;;;;4192872;28;20028;-65
2023/09/13 08:57:56;;;;;;;15.32;7.32;;;25.80;99.90;;;;;;4193912;28;20771;-63
2023/09/13 08:59:58;;;;;;;12.38;6.57;;;25.70;99.90;;;;;;4192233;28;20055;-63
2023/09/13 09:02:02;;;;;;;16.23;6.90;;;26.00;99.90;;;;;;4193763;28;20036;-66
2023/09/13 09:04:03;;;;;;;14.57;7.30;;;26.00;99.90;;;;;;4191305;28;20032;-60
2023/09/13 09:06:06;;;;;;;16.27;6.95;;;26.20;99.90;;;;;;4193502;28;20045;-65
2023/09/13 09:08:10;;;;;;;15.55;6.90;;;26.10;99.90;;;;;;4192637;28;20048;-63
2023/09/13 09:10:12;;;;;;;19.08;7.80;;;25.80;99.90;;;;;;4192297;28;20083;-64
2023/09/13 09:12:17;;;;;;;12.75;6.25;;;25.70;99.90;;;;;;4192899;28;20066;-62
2023/09/13 09:14:21;;;;;;;12.05;5.70;;;25.60;99.90;;;;;;4193749;28;20327;-67
2023/09/13 09:16:24;;;;;;;13.20;6.90;;;25.80;99.90;;;;;;4191992;28;20048;-62
2023/09/13 09:18:27;;;;;;;12.20;6.32;;;25.80;99.90;;;;;;4174955;28;20587;-61
2023/09/13 09:20:30;;;;;;;14.13;6.60;;;26.10;99.90;;;;;;4192567;28;20037;-67
2023/09/13 09:22:32;;;;;;;12.65;5.95;;;26.20;99.90;;;;;;4194073;28;20415;-61
2023/09/13 09:24:33;;;;;;;10.60;6.25;;;26.20;99.90;;;;;;4192712;28;20033;-63
2023/09/13 09:26:34;;;;;;;12.52;6.78;;;26.20;99.90;;;;;;4185725;28;20040;-60
2023/09/13 09:28:35;;;;;;;14.73;6.97;;;26.20;99.90;;;;;;4187506;28;20029;-60
2023/09/13 09:30:37;;;;;;;13.60;5.63;;;26.10;99.90;;;;;;4187343;28;20113;-61
2023/09/13 09:32:38;;;;;;;9.73;6.30;;;26.30;99.90;;;;;;4188691;28;20082;-64
2023/09/13 09:34:41;;;;;;;11.77;6.05;;;26.30;99.90;;;;;;4188386;28;21597;-61
2023/09/13 09:36:44;;;;;;;11.35;5.85;;;26.40;99.90;;;;;;4188367;28;20036;-64
2023/09/13 09:38:45;;;;;;;14.25;6.82;;;26.40;99.90;;;;;;4186300;28;20082;-63
2023/09/13 09:40:46;;;;;;;11.25;6.00;;;26.50;99.90;;;;;;4191557;28;20040;-63
2023/09/13 09:42:55;;;;;;;10.88;6.20;;;26.60;99.90;;;;;;4192068;28;20033;-64
2023/09/13 09:44:56;;;;;;;12.07;5.90;;;26.60;99.90;;;;;;4193655;28;20499;-60
2023/09/13 09:46:57;;;;;;;13.23;6.78;;;26.60;99.90;;;;;;4195818;28;20458;-65
2023/09/13 09:49:00;;;;;;;12.55;6.28;;;26.60;99.90;;;;;;4196178;28;20098;-62
2023/09/13 09:51:01;;;;;;;11.10;5.85;;;26.80;99.90;;;;;;4195680;28;20044;-61
2023/09/13 09:53:09;;;;;;;11.85;6.25;;;27.00;99.90;;;;;;4197525;28;20024;-65
2023/09/13 09:55:14;;;;;;;12.77;6.35;;;26.90;99.90;;;;;;4195148;28;20078;-63
2023/09/13 09:57:22;;;;;;;15.48;5.88;;;27.00;99.90;;;;;;4196705;28;20098;-65
2023/09/13 09:59:30;;;;;;;8.35;5.72;;;26.90;99.90;;;;;;4195405;28;20098;-63
2023/09/13 10:01:31;;;;;;;12.88;7.10;;;27.00;99.90;;;;;;4191780;28;20037;-67
2023/09/13 10:03:34;;;;;;;12.98;6.40;;;27.00;99.90;;;;;;4195142;28;20036;-60
2023/09/13 10:06:03;;;;;;;15.48;6.70;;;27.00;99.90;;;;;;4196598;28;20610;-63
2023/09/13 10:08:05;;;;;;;12.77;6.00;;;27.10;99.90;;;;;;4195651;28;20040;-64
2023/09/13 10:10:10;;;;;;;13.07;6.35;;;27.20;99.90;;;;;;4196396;28;20016;-65
2023/09/13 10:12:13;;;;;;;12.30;5.80;;;27.10;99.90;;;;;;4195029;28;20109;-62
2023/09/13 10:14:27;;;;;;;12.32;6.03;;;27.10;99.90;;;;;;4195987;28;20021;-64
2023/09/13 10:16:31;;;;;;;15.75;7.15;;;27.10;99.90;;;;;;4178932;28;20114;-64
2023/09/13 10:18:42;;;;;;;16.48;7.30;;;27.20;99.90;;;;;;4179246;28;20041;-61
2023/09/13 10:20:44;;;;;;;12.25;6.78;;;27.10;99.90;;;;;;4194124;28;20044;-61
2023/09/13 10:22:47;;;;;;;15.38;6.45;;;27.20;99.90;;;;;;4194117;28;20041;-61
2023/09/13 10:24:52;;;;;;;13.77;6.45;;;27.30;99.90;;;;;;4194690;28;20519;-64
2023/09/13 10:26:55;;;;;;;14.43;6.25;;;27.40;99.90;;;;;;4194850;28;20093;-59